Monroe, IA (50170)

5:24 AM CDT on May 23, 2015 (GMT -0500)
Reasnor, Iowa | | Change Station
CLOSE
Current Station
Personal Weather Station
Location: Reasnor, IA
Elevation: 892 ft
Nearby Weather Stations

Elev 892 ft 41.56 °N, 93.01 °W | Updated 8 seconds ago

Partly Cloudy
Partly Cloudy
56.8 °F
Feels Like 56.8 °F
N
2.9
Wind Variable Wind from ESE
Gusts 4.9 mph

Today
High -- | Low -- °F
--% Chance of Precip.
Yesterday
High -- | Low -- °F
Precip. -- in
5:46 AM 8:32 PM
Waxing Crescent, 29% visible
Pressure 30.26 in
Visibility 10.0 miles
Clouds Few 7500 ft
Mostly Cloudy 9500 ft
Mostly Cloudy 12000 ft
Dew Point 51 °F
Humidity 80%
Rainfall 0.00 in
Snow Depth Not available.
UV 0.0 out of 12
Pollen 9.50 out of 12
Air Quality Not available.
Flu Activity Sporadic
METAR KTNU 231015Z AUTO 12003KT 10SM FEW075 BKN095 BKN120 12/10 A3026 RMK AO2 PWINO

More Conditions Fewer Conditions

Pressure 30.26 in
Visibility 10.0 miles
Clouds Few 7500 ft
Mostly Cloudy 9500 ft
Mostly Cloudy 12000 ft
Dew Point 51 °F
Humidity 80%
Rainfall 0.00 in
Snow Depth Not available.
UV 0.0 out of 12
Pollen 9.50 out of 12
Air Quality Not available.
Flu Activity Sporadic
METAR KTNU 231015Z AUTO 12003KT 10SM FEW075 BKN095 BKN120 12/10 A3026 RMK AO2 PWINO

More Conditions Fewer Conditions

10-Day Weather Forecast

Almanac

Astronomy

May. 23, 2015 Rise Set
Actual Time
Civil Twilight
Nautical Twilight
Astronomical Twilight
Moon
Length of Visible Light
Length of Day
Tomorrow will be .
, % of the Moon is Illuminated

Today's Extremes

State Highs State Lows

Community

WunderPhotos

Upload Photos

1,823,408 photos uploaded!

WunderBlogs® & News

Nearby

Air Quality

  Air Quality AQ Index Pollutant
Not available.

Snow Depth

Station Depth Elevation

Earthquake Activity

City Distance Mag. Time & Date
Minimum magnitude displayed is 2.5.

Coastal Water Temperatures

Place Temperature

Stations

Nearby Weather Stations

Station Location Temp. Windchill Dew Point Humidity Wind Precip. Elev Updated Type